Mozyr', Belarus
Current Conditions -  °F | °C
As of 11:30 AM on Monday 20 Oct 2014 (Local Time) from UMGG Reporting Station
Overcast Overcast  
Wind Chill: 52°   Ceiling: 600
Heat Index: 52°   Visibility: 6mi
Dew Point: 50°   Wind: 13mph
Humidity: 94%   Direction: 250°WSW
Pressure: 29.62"   Gusts: 20mph
Location:  52.05°N, 29.26°E
Report Text: UMGG 200930Z 25006G09MPS 9000 OVC006 11/10 Q1003 R28/290050NOSIG RMK QBB200
Loading
Personal Weather Stations






























Interactive Weather Map
Tropical Storm Tracking
New forecast layout! Learn more

10-Day Weather Forecast

Advertisements
Track Severe Weather on mobile